Time;durP1;ratioP1;P1;durP2;ratioP2;P2;SDS_P1;SDS_P2;PMS_P1;PMS_P2;Temp;Humidity;BMP_temperature;BMP_pressure;BME280_temperature;BME280_humidity;BME280_pressure;Samples;Min_cycle;Max_cycle;Signal;HPM_P1;HPM_P2
2022/09/11 00:01:15;;;;;;;54.93;28.80;;;15.80;99.90;;;;;;4996188;28;20647;-72
2022/09/11 00:03:44;;;;;;;54.37;29.13;;;15.80;99.90;;;;;;4998882;28;20245;-73
2022/09/11 00:06:15;;;;;;;53.30;27.83;;;15.90;99.90;;;;;;4998475;28;20226;-73
2022/09/11 00:09:00;;;;;;;53.40;27.50;;;15.90;99.90;;;;;;4997162;28;20742;-73
2022/09/11 00:11:30;;;;;;;52.80;26.87;;;15.90;99.90;;;;;;4996904;28;20269;-72
2022/09/11 00:13:57;;;;;;;45.80;25.60;;;16.00;99.90;;;;;;4996744;28;20266;-72
2022/09/11 00:16:28;;;;;;;44.73;24.90;;;15.90;99.90;;;;;;4999097;28;20211;-73
2022/09/11 00:18:58;;;;;;;52.30;26.83;;;15.90;99.90;;;;;;4995943;28;20258;-73
2022/09/11 00:21:26;;;;;;;47.90;25.93;;;15.90;99.90;;;;;;4996029;28;20218;-72
2022/09/11 00:23:54;;;;;;;51.73;26.07;;;15.90;99.90;;;;;;4991315;28;20306;-72
2022/09/11 00:26:23;;;;;;;54.30;27.77;;;15.80;99.90;;;;;;4997790;28;20214;-72
2022/09/11 00:28:51;;;;;;;47.53;27.30;;;15.80;99.90;;;;;;4997027;28;20270;-74
2022/09/11 00:31:21;;;;;;;50.83;26.13;;;15.80;99.90;;;;;;4995674;28;20566;-73
2022/09/11 00:33:48;;;;;;;47.77;26.80;;;15.60;99.90;;;;;;4999051;28;20211;-72
2022/09/11 00:36:17;;;;;;;52.20;27.10;;;15.70;99.90;;;;;;5001455;28;20699;-72
2022/09/11 00:38:45;;;;;;;51.20;27.43;;;15.60;99.90;;;;;;4981545;28;20688;-73
2022/09/11 00:41:16;;;;;;;59.47;29.37;;;15.60;99.90;;;;;;4999321;28;20671;-72
2022/09/11 00:43:56;;;;;;;53.90;28.97;;;15.60;99.90;;;;;;4999561;28;20238;-72
2022/09/11 00:46:34;;;;;;;50.87;27.40;;;15.60;99.90;;;;;;4990089;28;20333;-73
2022/09/11 00:49:06;;;;;;;55.23;27.07;;;15.50;99.90;;;;;;4994283;28;20230;-73
2022/09/11 00:51:35;;;;;;;54.10;26.70;;;15.40;99.90;;;;;;5000440;28;20226;-72
2022/09/11 00:54:03;;;;;;;54.10;27.30;;;15.50;99.90;;;;;;4999479;28;20249;-73
2022/09/11 00:56:34;;;;;;;57.20;27.47;;;15.40;99.90;;;;;;5000599;28;20210;-74
2022/09/11 00:59:02;;;;;;;55.03;27.50;;;15.40;99.90;;;;;;4984481;28;20415;-74
2022/09/11 01:01:29;;;;;;;61.17;29.03;;;15.40;99.90;;;;;;4999856;28;20219;-73
2022/09/11 01:03:56;;;;;;;66.37;31.03;;;15.40;99.90;;;;;;4981758;28;20250;-73
2022/09/11 01:06:24;;;;;;;57.67;29.20;;;15.30;99.90;;;;;;5000935;28;20280;-72
2022/09/11 01:08:51;;;;;;;61.60;29.80;;;15.40;99.90;;;;;;4999064;28;20227;-73
2022/09/11 01:11:38;;;;;;;66.03;32.17;;;15.30;99.90;;;;;;4997856;28;20218;-72
2022/09/11 01:14:37;;;;;;;55.53;28.67;;;15.30;99.90;;;;;;5000224;28;20214;-74
2022/09/11 01:17:34;;;;;;;62.43;29.70;;;15.20;99.90;;;;;;4996836;28;20273;-73
2022/09/11 01:20:19;;;;;;;65.80;30.40;;;15.20;99.90;;;;;;4981250;28;20603;-73
2022/09/11 01:23:11;;;;;;;61.07;29.23;;;15.20;99.90;;;;;;4996873;28;20299;-72
2022/09/11 01:25:57;;;;;;;67.30;30.33;;;15.20;99.90;;;;;;4999815;28;20623;-74
2022/09/11 01:28:36;;;;;;;71.03;32.93;;;15.10;99.90;;;;;;4999881;28;20236;-73
2022/09/11 01:31:11;;;;;;;73.17;31.87;;;15.10;99.90;;;;;;4999342;28;20245;-73
2022/09/11 01:33:49;;;;;;;65.37;30.20;;;15.10;99.90;;;;;;5000700;28;20300;-73
2022/09/11 01:36:27;;;;;;;75.70;31.83;;;15.10;99.90;;;;;;5000354;28;20222;-73
2022/09/11 01:39:01;;;;;;;72.43;31.50;;;15.10;99.90;;;;;;5000182;28;20214;-72
2022/09/11 01:41:34;;;;;;;67.50;30.60;;;15.10;99.90;;;;;;4998925;28;20207;-72
2022/09/11 01:44:11;;;;;;;66.60;31.10;;;15.00;99.90;;;;;;4997018;28;20298;-72
2022/09/11 01:46:44;;;;;;;71.30;30.13;;;15.00;99.90;;;;;;4997616;28;20263;-72
2022/09/11 01:49:19;;;;;;;73.47;32.00;;;15.00;99.90;;;;;;4998828;28;20745;-72
2022/09/11 01:51:51;;;;;;;69.90;31.63;;;15.00;99.90;;;;;;4995431;28;20694;-73
2022/09/11 01:54:24;;;;;;;73.30;32.83;;;15.00;99.90;;;;;;4999798;28;20684;-73
2022/09/11 01:56:59;;;;;;;70.83;32.13;;;15.00;99.90;;;;;;4983677;28;20290;-71
2022/09/11 01:59:33;;;;;;;67.80;29.03;;;14.90;99.90;;;;;;4997157;28;20215;-73
2022/09/11 02:02:05;;;;;;;63.57;30.27;;;14.90;99.90;;;;;;4997680;28;20620;-73
2022/09/11 02:04:40;;;;;;;70.13;30.80;;;14.90;99.90;;;;;;4997490;28;20302;-73
2022/09/11 02:07:13;;;;;;;63.93;30.17;;;14.90;99.90;;;;;;4997441;28;20218;-73
2022/09/11 02:09:57;;;;;;;63.27;29.90;;;14.80;99.90;;;;;;4997540;28;20599;-73
2022/09/11 02:12:29;;;;;;;60.83;29.70;;;14.80;99.90;;;;;;4981985;28;20694;-73
2022/09/11 02:14:58;;;;;;;55.33;27.70;;;14.80;99.90;;;;;;5001501;28;20265;-72
2022/09/11 02:17:49;;;;;;;68.80;30.70;;;14.70;99.90;;;;;;4981569;28;20293;-72
2022/09/11 02:20:16;;;;;;;65.57;31.60;;;14.70;99.90;;;;;;5000596;28;20253;-73
2022/09/11 02:22:43;;;;;;;70.27;31.13;;;14.70;99.90;;;;;;4995174;28;20206;-73
2022/09/11 02:25:12;;;;;;;81.60;33.17;;;14.70;99.90;;;;;;4996239;28;20696;-73
2022/09/11 02:27:39;;;;;;;75.00;31.43;;;14.60;99.90;;;;;;4996949;28;20986;-75
2022/09/11 02:30:07;;;;;;;73.63;31.57;;;14.60;99.90;;;;;;4997979;28;20237;-72
2022/09/11 02:32:37;;;;;;;75.00;33.47;;;14.60;99.90;;;;;;4999814;28;20204;-72
2022/09/11 02:35:05;;;;;;;81.70;32.97;;;14.60;99.90;;;;;;4980935;28;20341;-72
2022/09/11 02:37:32;;;;;;;78.30;34.17;;;14.50;99.90;;;;;;4996907;28;20278;-73
2022/09/11 02:40:16;;;;;;;79.70;33.77;;;14.50;99.90;;;;;;4998678;28;20249;-73
2022/09/11 02:42:45;;;;;;;86.10;33.40;;;14.50;99.90;;;;;;4998030;28;20511;-72
2022/09/11 02:45:22;;;;;;;72.17;32.10;;;14.50;99.90;;;;;;4997546;28;20883;-73
2022/09/11 02:48:18;;;;;;;80.13;32.53;;;14.50;99.90;;;;;;4997862;28;20297;-73
2022/09/11 02:51:03;;;;;;;61.27;28.10;;;14.50;99.90;;;;;;4998748;28;20332;-74
2022/09/11 02:53:57;;;;;;;77.63;31.63;;;14.40;99.90;;;;;;4995254;28;20301;-73
2022/09/11 02:56:38;;;;;;;76.43;31.63;;;14.40;99.90;;;;;;4997189;28;20276;-73
2022/09/11 02:59:20;;;;;;;69.07;28.20;;;14.40;99.90;;;;;;4980052;28;20691;-72
2022/09/11 03:01:53;;;;;;;75.47;29.77;;;14.40;99.90;;;;;;4997357;28;20310;-73
2022/09/11 03:04:23;;;;;;;76.20;31.87;;;14.40;99.90;;;;;;4996371;28;20215;-72
2022/09/11 03:06:51;;;;;;;82.10;32.60;;;14.40;99.90;;;;;;4996583;28;20230;-73
2022/09/11 03:09:19;;;;;;;82.33;32.37;;;14.40;99.90;;;;;;4995691;28;20235;-73
2022/09/11 03:11:46;;;;;;;85.77;33.43;;;14.40;99.90;;;;;;4980398;28;20217;-73
2022/09/11 03:14:13;;;;;;;77.33;30.93;;;14.30;99.90;;;;;;4999279;28;20631;-73
2022/09/11 03:16:40;;;;;;;70.57;29.77;;;14.30;99.90;;;;;;4998620;28;20209;-74
2022/09/11 03:19:07;;;;;;;82.13;32.90;;;14.30;99.90;;;;;;4997635;28;20211;-73
2022/09/11 03:21:35;;;;;;;73.77;29.80;;;14.30;99.90;;;;;;4995798;28;20222;-74
2022/09/11 03:24:03;;;;;;;87.07;32.00;;;14.30;99.90;;;;;;4994438;28;20301;-73
2022/09/11 03:26:32;;;;;;;89.57;33.00;;;14.30;99.90;;;;;;4998918;28;20305;-73
2022/09/11 03:28:59;;;;;;;87.53;33.83;;;14.30;99.90;;;;;;4978786;28;20231;-73
2022/09/11 03:31:27;;;;;;;88.27;33.53;;;14.30;99.90;;;;;;4996413;28;20238;-72
2022/09/11 03:33:54;;;;;;;85.83;33.30;;;14.30;99.90;;;;;;4998106;28;20636;-73
2022/09/11 03:36:21;;;;;;;87.27;32.43;;;14.30;99.90;;;;;;4997323;28;20692;-72
2022/09/11 03:38:48;;;;;;;83.80;32.30;;;14.30;99.90;;;;;;4995650;28;20274;-72
2022/09/11 03:41:17;;;;;;;80.50;31.10;;;14.30;99.90;;;;;;4997219;28;20685;-72
2022/09/11 03:43:44;;;;;;;91.97;33.43;;;14.30;99.90;;;;;;4998092;28;20261;-72
2022/09/11 03:46:11;;;;;;;80.97;32.20;;;14.20;99.90;;;;;;4996744;28;20250;-72
2022/09/11 03:48:38;;;;;;;83.63;32.57;;;14.30;99.90;;;;;;4995775;28;20218;-73
2022/09/11 03:51:05;;;;;;;82.20;31.77;;;14.30;99.90;;;;;;4994861;28;20603;-73
2022/09/11 03:53:32;;;;;;;70.33;29.13;;;14.30;99.90;;;;;;4999663;28;20245;-74
2022/09/11 03:55:59;;;;;;;85.37;31.53;;;14.20;99.90;;;;;;4996024;28;20218;-74
2022/09/11 03:58:26;;;;;;;69.27;29.60;;;14.20;99.90;;;;;;4995871;28;20215;-73
2022/09/11 04:00:54;;;;;;;81.73;31.27;;;14.20;99.90;;;;;;4996392;28;20612;-73
2022/09/11 04:03:21;;;;;;;83.03;31.50;;;14.20;99.90;;;;;;4997922;28;20294;-72
2022/09/11 04:05:57;;;;;;;77.80;31.30;;;14.10;99.90;;;;;;4996538;28;20223;-74
2022/09/11 04:08:24;;;;;;;76.63;31.03;;;14.20;99.90;;;;;;4997393;28;20222;-73
2022/09/11 04:10:56;;;;;;;81.20;31.27;;;14.10;99.90;;;;;;4985696;28;20932;-73
2022/09/11 04:13:27;;;;;;;84.00;31.57;;;14.10;99.90;;;;;;4999554;28;20219;-72
2022/09/11 04:15:58;;;;;;;76.37;31.40;;;14.10;99.90;;;;;;4999659;28;20273;-73
2022/09/11 04:18:25;;;;;;;71.33;30.07;;;14.10;99.90;;;;;;4999206;28;20294;-74
2022/09/11 04:20:52;;;;;;;69.40;28.80;;;14.10;99.90;;;;;;4999922;28;20337;-72
2022/09/11 04:23:19;;;;;;;79.23;31.63;;;14.00;99.90;;;;;;4990908;28;20607;-74
2022/09/11 04:25:46;;;;;;;74.20;28.37;;;14.00;99.90;;;;;;5001091;28;20301;-73
2022/09/11 04:28:14;;;;;;;75.50;29.23;;;13.90;99.90;;;;;;5001135;28;20241;-73
2022/09/11 04:30:41;;;;;;;78.83;29.77;;;13.90;99.90;;;;;;4998717;28;20231;-73
2022/09/11 04:33:08;;;;;;;78.83;32.33;;;13.90;99.90;;;;;;4999656;28;20243;-73
2022/09/11 04:35:38;;;;;;;84.87;32.60;;;13.90;99.90;;;;;;5001357;28;20292;-72
2022/09/11 04:38:06;;;;;;;74.27;29.03;;;13.90;99.90;;;;;;4999871;28;20241;-75
2022/09/11 04:40:34;;;;;;;87.93;32.90;;;13.90;99.90;;;;;;4998649;28;20331;-73
2022/09/11 04:43:01;;;;;;;91.50;34.63;;;13.80;99.90;;;;;;4982304;28;20218;-75
2022/09/11 04:45:32;;;;;;;80.17;32.03;;;13.80;99.90;;;;;;5002162;28;20294;-73
2022/09/11 04:47:59;;;;;;;90.70;33.67;;;13.80;99.90;;;;;;4982401;28;20211;-73
2022/09/11 04:50:30;;;;;;;70.30;29.40;;;13.80;99.90;;;;;;4998802;28;20301;-73
2022/09/11 04:52:57;;;;;;;79.93;30.63;;;13.80;99.90;;;;;;4999553;28;20214;-74
2022/09/11 04:55:25;;;;;;;75.50;29.37;;;13.80;99.90;;;;;;4999229;28;20269;-73
2022/09/11 04:57:52;;;;;;;79.13;31.50;;;13.80;99.90;;;;;;4999173;28;20563;-74
2022/09/11 05:00:19;;;;;;;74.43;30.00;;;13.80;99.90;;;;;;4998891;28;20675;-73
2022/09/11 05:02:46;;;;;;;77.53;31.53;;;13.80;99.90;;;;;;4999266;28;20315;-74
2022/09/11 05:05:13;;;;;;;82.40;31.20;;;13.70;99.90;;;;;;5000520;28;20277;-74
2022/09/11 05:07:40;;;;;;;76.87;29.17;;;13.70;99.90;;;;;;4983768;28;20218;-74
2022/09/11 05:10:07;;;;;;;75.00;29.67;;;13.70;99.90;;;;;;4997701;28;20274;-74
2022/09/11 05:12:34;;;;;;;68.97;27.57;;;13.70;99.90;;;;;;4983144;28;20297;-74
2022/09/11 05:15:01;;;;;;;70.03;29.20;;;13.70;99.90;;;;;;4981745;28;20281;-74
2022/09/11 05:17:28;;;;;;;67.90;27.47;;;13.70;99.90;;;;;;5001044;28;20207;-75
2022/09/11 05:19:55;;;;;;;76.20;29.40;;;13.70;99.90;;;;;;5000195;28;20234;-74
2022/09/11 05:22:22;;;;;;;66.33;27.20;;;13.70;99.90;;;;;;4981895;28;20215;-73
2022/09/11 05:24:49;;;;;;;85.67;29.80;;;13.80;99.90;;;;;;4984225;28;20203;-75
2022/09/11 05:27:16;;;;;;;85.97;30.43;;;13.70;99.90;;;;;;5002315;28;20643;-75
2022/09/11 05:29:43;;;;;;;76.10;29.67;;;13.80;99.90;;;;;;4999500;28;20673;-73
2022/09/11 05:32:12;;;;;;;86.90;31.17;;;13.70;99.90;;;;;;4981743;28;20246;-73
2022/09/11 05:34:39;;;;;;;85.50;31.23;;;13.70;99.90;;;;;;5001677;28;20210;-73
2022/09/11 05:37:06;;;;;;;80.90;30.97;;;13.80;99.90;;;;;;4979634;28;20326;-72
2022/09/11 05:39:33;;;;;;;77.23;28.23;;;13.80;99.90;;;;;;5001458;28;20581;-74
2022/09/11 05:42:00;;;;;;;75.30;30.43;;;13.80;99.90;;;;;;5000413;28;20284;-73
2022/09/11 05:44:28;;;;;;;77.93;29.90;;;13.90;99.90;;;;;;5001135;28;20234;-74
2022/09/11 05:46:57;;;;;;;77.33;28.53;;;13.90;99.90;;;;;;4998001;28;20209;-73
2022/09/11 05:49:24;;;;;;;73.20;28.27;;;13.90;99.90;;;;;;5001005;28;20210;-73
2022/09/11 05:51:51;;;;;;;64.90;25.97;;;14.00;99.90;;;;;;4998994;28;20270;-74
2022/09/11 05:54:18;;;;;;;63.70;26.03;;;14.00;99.90;;;;;;4985221;28;20231;-72
2022/09/11 05:56:45;;;;;;;56.27;24.83;;;14.10;99.90;;;;;;4999428;28;20242;-73
2022/09/11 05:59:15;;;;;;;65.77;26.17;;;14.10;99.90;;;;;;4998941;28;20207;-73
2022/09/11 06:01:42;;;;;;;70.33;27.40;;;14.20;99.90;;;;;;4999591;28;20213;-74
2022/09/11 06:04:11;;;;;;;72.90;29.20;;;14.20;99.90;;;;;;5001375;28;20207;-74
2022/09/11 06:06:38;;;;;;;67.43;28.40;;;14.40;99.90;;;;;;4982788;28;20296;-73
2022/09/11 06:09:06;;;;;;;73.33;29.27;;;14.30;99.90;;;;;;5000464;28;20290;-74
2022/09/11 06:11:33;;;;;;;67.70;29.03;;;14.40;99.90;;;;;;4996443;28;20301;-74
2022/09/11 06:14:00;;;;;;;68.30;27.70;;;14.50;99.90;;;;;;5000549;28;20214;-74
2022/09/11 06:16:30;;;;;;;62.93;27.60;;;14.60;99.90;;;;;;4985531;28;20298;-75
2022/09/11 06:18:57;;;;;;;61.57;27.37;;;14.70;99.90;;;;;;4997691;28;20234;-74
2022/09/11 06:21:26;;;;;;;57.03;26.53;;;14.80;99.90;;;;;;4999489;28;20781;-74
2022/09/11 06:23:53;;;;;;;50.47;24.30;;;14.80;99.90;;;;;;4994866;28;20250;-74
2022/09/11 06:26:22;;;;;;;52.07;23.70;;;14.90;99.90;;;;;;4997086;28;20667;-74
2022/09/11 06:28:52;;;;;;;48.80;22.10;;;15.00;99.90;;;;;;4998391;28;20322;-75
2022/09/11 06:31:21;;;;;;;44.40;20.63;;;15.10;99.90;;;;;;4998509;28;20244;-74
2022/09/11 06:33:51;;;;;;;47.97;23.07;;;15.20;99.90;;;;;;4980227;28;20211;-73
2022/09/11 06:36:21;;;;;;;48.00;23.33;;;15.10;99.90;;;;;;4996688;28;20314;-74
2022/09/11 06:38:56;;;;;;;52.63;25.87;;;15.30;99.90;;;;;;4997990;28;20687;-72
2022/09/11 06:41:24;;;;;;;54.93;26.30;;;15.40;99.90;;;;;;4999308;28;20267;-73
2022/09/11 06:43:52;;;;;;;58.23;27.13;;;15.40;99.90;;;;;;4997782;28;20306;-74
2022/09/11 06:46:21;;;;;;;55.87;26.40;;;15.50;99.90;;;;;;4979029;28;20254;-74
2022/09/11 06:48:49;;;;;;;64.73;29.00;;;15.70;99.90;;;;;;4998025;28;20297;-74
2022/09/11 06:51:21;;;;;;;68.33;30.57;;;15.80;99.90;;;;;;4999136;28;20483;-75
2022/09/11 06:53:57;;;;;;;47.75;26.25;;;16.30;99.90;;;;;;4997477;28;20238;-74
2022/09/11 06:56:24;;;;;;;42.17;24.20;;;17.00;99.90;;;;;;4996340;28;20218;-76
2022/09/11 06:58:51;;;;;;;41.35;24.77;;;17.70;99.90;;;;;;4982477;28;20294;-73
2022/09/11 07:01:20;;;;;;;41.72;25.70;;;18.40;99.90;;;;;;4999604;28;20285;-74
2022/09/11 07:03:49;;;;;;;37.05;23.27;;;19.00;99.90;;;;;;4997540;28;20301;-74
2022/09/11 07:06:18;;;;;;;35.63;22.42;;;19.80;99.90;;;;;;5000092;28;20227;-73
2022/09/11 07:08:59;;;;;;;29.70;20.90;;;20.60;99.90;;;;;;4977802;28;20218;-73
2022/09/11 07:11:28;;;;;;;27.65;20.48;;;21.20;99.90;;;;;;4997310;28;20275;-73
2022/09/11 07:13:55;;;;;;;31.50;21.15;;;21.80;99.90;;;;;;4996888;28;20378;-74
2022/09/11 07:16:22;;;;;;;32.38;21.98;;;22.20;99.90;;;;;;5000116;28;20202;-74
2022/09/11 07:18:49;;;;;;;29.27;20.17;;;22.40;99.90;;;;;;5000255;28;20214;-74
2022/09/11 07:21:21;;;;;;;31.20;20.88;;;22.60;99.90;;;;;;4997783;28;20261;-75
2022/09/11 07:23:53;;;;;;;28.42;21.65;;;22.60;99.90;;;;;;4978554;28;20210;-74
2022/09/11 07:26:22;;;;;;;25.67;20.27;;;22.70;99.90;;;;;;4996877;28;20238;-74
2022/09/11 07:28:50;;;;;;;27.10;20.45;;;22.80;99.90;;;;;;4997572;28;20211;-73
2022/09/11 07:31:20;;;;;;;23.20;18.38;;;23.00;99.90;;;;;;4981792;28;20226;-72
2022/09/11 07:33:48;;;;;;;26.73;20.60;;;23.40;99.90;;;;;;4980244;28;20211;-73
2022/09/11 07:36:17;;;;;;;23.00;17.60;;;23.60;99.90;;;;;;4979694;28;20223;-74
2022/09/11 07:38:45;;;;;;;22.88;18.05;;;23.90;99.90;;;;;;4997949;28;20288;-74
2022/09/11 07:41:17;;;;;;;22.35;17.83;;;24.10;99.90;;;;;;4981586;28;20254;-74
2022/09/11 07:43:44;;;;;;;21.23;16.90;;;24.30;99.90;;;;;;5001484;28;20261;-74
2022/09/11 07:46:12;;;;;;;22.48;17.95;;;24.50;99.90;;;;;;5000268;28;20615;-74
2022/09/11 07:48:41;;;;;;;23.02;18.60;;;24.90;99.90;;;;;;5002958;28;20225;-73
2022/09/11 07:51:14;;;;;;;22.25;18.77;;;25.20;99.90;;;;;;5003689;28;20234;-73
2022/09/11 07:53:47;;;;;;;21.08;17.42;;;25.40;99.90;;;;;;5001866;28;20306;-74
2022/09/11 07:56:19;;;;;;;20.98;17.10;;;25.80;99.90;;;;;;5003534;28;20310;-74
2022/09/11 07:58:46;;;;;;;19.30;15.73;;;25.90;99.90;;;;;;5003085;28;20310;-74
2022/09/11 08:01:18;;;;;;;19.52;16.80;;;26.00;99.90;;;;;;5003464;28;20582;-73
2022/09/11 08:03:45;;;;;;;18.92;16.60;;;26.10;99.90;;;;;;5003481;28;20333;-74
2022/09/11 08:06:14;;;;;;;19.83;17.48;;;26.20;99.90;;;;;;5002715;28;20266;-75
2022/09/11 08:08:57;;;;;;;18.90;15.57;;;26.30;99.90;;;;;;5000597;28;20210;-73
2022/09/11 08:11:27;;;;;;;14.93;13.32;;;26.40;99.90;;;;;;5000309;28;20234;-73
2022/09/11 08:13:55;;;;;;;16.70;13.18;;;26.40;99.90;;;;;;5003735;28;20215;-72
2022/09/11 08:16:24;;;;;;;15.27;12.95;;;26.50;99.90;;;;;;5003246;28;20217;-74
2022/09/11 08:18:51;;;;;;;14.00;12.48;;;26.60;99.90;;;;;;4982631;28;20215;-74
2022/09/11 08:21:18;;;;;;;14.57;12.95;;;26.70;99.90;;;;;;5000268;28;20231;-75
2022/09/11 08:23:46;;;;;;;17.70;14.02;;;26.80;99.90;;;;;;4979789;28;20290;-74
2022/09/11 08:26:21;;;;;;;16.58;14.30;;;26.90;99.90;;;;;;5002292;28;20297;-75
2022/09/11 08:28:49;;;;;;;17.63;14.70;;;26.90;99.90;;;;;;5002128;28;20280;-75
2022/09/11 08:31:18;;;;;;;14.65;13.15;;;26.90;99.90;;;;;;4999452;28;20230;-75
2022/09/11 08:33:48;;;;;;;16.92;15.23;;;26.90;99.90;;;;;;4984970;28;20293;-74
2022/09/11 08:36:15;;;;;;;14.52;13.00;;;27.10;99.90;;;;;;5000839;28;20289;-74
2022/09/11 08:38:43;;;;;;;15.52;11.93;;;27.00;99.90;;;;;;5001432;28;20273;-74
2022/09/11 08:41:31;;;;;;;12.60;11.25;;;26.70;99.90;;;;;;5002885;28;20289;-73
2022/09/11 08:44:21;;;;;;;14.50;12.15;;;26.50;99.90;;;;;;4984412;28;20210;-74
2022/09/11 08:46:56;;;;;;;8.07;5.65;;;26.50;99.90;;;;;;5000556;28;20207;-73
2022/09/11 08:49:46;;;;;;;11.25;8.23;;;26.30;99.90;;;;;;4999499;28;20286;-74
2022/09/11 08:52:15;;;;;;;10.00;8.00;;;26.30;99.90;;;;;;4999318;28;20251;-74
2022/09/11 08:54:44;;;;;;;13.43;11.07;;;26.20;99.90;;;;;;4998792;28;20254;-74
2022/09/11 08:57:17;;;;;;;13.05;9.90;;;26.30;99.90;;;;;;4999371;28;20746;-76
2022/09/11 08:59:53;;;;;;;14.73;11.90;;;26.50;99.90;;;;;;4999644;28;20207;-74
2022/09/11 09:02:44;;;;;;;10.88;8.52;;;26.70;99.90;;;;;;4999945;28;20243;-75
2022/09/11 09:05:31;;;;;;;8.43;6.82;;;27.20;99.90;;;;;;5002048;28;20206;-75
2022/09/11 09:08:33;;;;;;;7.60;6.80;;;27.00;99.90;;;;;;5001973;28;20241;-75
2022/09/11 09:11:13;;;;;;;10.38;8.13;;;26.70;99.90;;;;;;5001136;28;20288;-76
2022/09/11 09:14:07;;;;;;;8.80;7.57;;;26.10;99.90;;;;;;5001074;28;20207;-75
2022/09/11 09:16:54;;;;;;;8.50;7.68;;;25.50;99.90;;;;;;5001877;28;20207;-74
2022/09/11 09:19:35;;;;;;;12.98;8.82;;;24.80;99.90;;;;;;5001572;28;20278;-76
2022/09/11 09:22:28;;;;;;;10.27;8.65;;;24.30;99.90;;;;;;4998341;28;20225;-74
2022/09/11 09:25:03;;;;;;;11.50;9.52;;;23.90;99.90;;;;;;4999386;28;20221;-75
2022/09/11 09:27:38;;;;;;;13.63;9.90;;;23.50;99.90;;;;;;4998714;28;20214;-75
2022/09/11 09:30:16;;;;;;;12.85;7.85;;;23.20;99.90;;;;;;4999487;28;20206;-75
2022/09/11 09:32:52;;;;;;;10.52;7.35;;;22.90;99.90;;;;;;4989392;28;20242;-75
2022/09/11 09:35:25;;;;;;;9.15;7.65;;;22.70;99.90;;;;;;4997815;28;20313;-76
2022/09/11 09:37:53;;;;;;;8.35;7.18;;;22.90;99.90;;;;;;5000983;28;20238;-76
2022/09/11 09:40:23;;;;;;;8.93;7.57;;;23.20;99.90;;;;;;4998612;28;20208;-76
2022/09/11 09:43:04;;;;;;;9.88;7.63;;;23.60;99.90;;;;;;4998429;28;20219;-76
2022/09/11 09:45:49;;;;;;;8.40;6.53;;;24.00;99.90;;;;;;5000922;28;20238;-76
2022/09/11 09:48:16;;;;;;;7.63;5.70;;;24.40;99.90;;;;;;5000930;28;20675;-75
2022/09/11 09:50:43;;;;;;;9.43;6.57;;;24.80;99.90;;;;;;5000885;28;20265;-75
2022/09/11 09:53:31;;;;;;;6.60;5.90;;;25.10;99.90;;;;;;4999660;28;20280;-75
2022/09/11 09:56:00;;;;;;;8.50;5.60;;;25.50;99.90;;;;;;5000669;28;20341;-75
2022/09/11 09:58:33;;;;;;;8.05;5.90;;;25.70;99.90;;;;;;4998180;28;20211;-74
2022/09/11 10:01:00;;;;;;;5.85;4.32;;;25.70;99.90;;;;;;4998328;28;20207;-75
2022/09/11 10:03:27;;;;;;;5.43;4.53;;;25.60;99.90;;;;;;4998388;28;20334;-76
2022/09/11 10:05:55;;;;;;;4.45;4.05;;;25.70;99.90;;;;;;4997964;28;20690;-75
2022/09/11 10:08:34;;;;;;;4.20;3.55;;;25.70;99.90;;;;;;5000616;28;20211;-75
2022/09/11 10:11:02;;;;;;;5.90;4.18;;;25.60;99.90;;;;;;4984689;28;20229;-75
2022/09/11 10:13:38;;;;;;;3.95;3.30;;;25.30;99.90;;;;;;4998536;28;20203;-75
2022/09/11 10:16:20;;;;;;;3.78;3.28;;;25.10;99.90;;;;;;4997096;28;20209;-74
2022/09/11 10:18:47;;;;;;;8.48;4.18;;;24.90;99.90;;;;;;4996667;28;20207;-76
2022/09/11 10:21:21;;;;;;;4.75;3.10;;;24.70;99.90;;;;;;5000470;28;20222;-75
2022/09/11 10:23:53;;;;;;;3.42;3.13;;;24.40;99.90;;;;;;4992991;28;20210;-75
2022/09/11 10:26:29;;;;;;;4.75;3.05;;;24.30;99.90;;;;;;4998679;28;20213;-75
2022/09/11 10:29:06;;;;;;;5.38;3.50;;;24.00;99.90;;;;;;4999370;28;20264;-74
2022/09/11 10:31:37;;;;;;;5.50;3.63;;;23.90;99.90;;;;;;4999162;28;20772;-75
2022/09/11 10:34:04;;;;;;;4.65;3.72;;;23.80;99.90;;;;;;4981598;28;20321;-75
2022/09/11 10:36:33;;;;;;;4.60;3.42;;;23.60;99.90;;;;;;4996131;28;20223;-75
2022/09/11 10:39:01;;;;;;;4.65;3.45;;;23.70;99.90;;;;;;4997891;28;20612;-76
2022/09/11 10:41:33;;;;;;;5.53;2.95;;;23.80;99.90;;;;;;4999175;28;20214;-75
2022/09/11 10:44:10;;;;;;;4.72;3.00;;;23.90;99.90;;;;;;4998171;28;20211;-76
2022/09/11 10:46:41;;;;;;;7.28;3.97;;;24.00;99.90;;;;;;4997370;28;20296;-75
2022/09/11 10:49:15;;;;;;;3.83;2.78;;;24.00;99.90;;;;;;4996036;28;20242;-75
2022/09/11 10:51:56;;;;;;;3.50;3.00;;;24.10;99.90;;;;;;4998122;28;20238;-76
2022/09/11 10:54:39;;;;;;;2.70;2.50;;;24.30;99.90;;;;;;4997767;28;20659;-75
2022/09/11 10:57:37;;;;;;;4.10;2.20;;;24.50;99.90;;;;;;4997247;28;20225;-75
2022/09/11 11:00:20;;;;;;;3.30;2.22;;;24.80;99.90;;;;;;4992913;28;20199;-76
2022/09/11 11:02:54;;;;;;;4.32;2.42;;;24.90;99.90;;;;;;4999178;28;20210;-76
2022/09/11 11:05:26;;;;;;;3.78;2.50;;;25.10;99.90;;;;;;4981104;28;20256;-75
2022/09/11 11:07:58;;;;;;;4.72;3.30;;;25.20;99.90;;;;;;4996206;28;20207;-76
2022/09/11 11:10:50;;;;;;;4.82;3.03;;;25.40;99.90;;;;;;4996337;28;20258;-75
2022/09/11 11:13:46;;;;;;;4.95;3.47;;;25.50;99.90;;;;;;4999050;28;20305;-75
2022/09/11 11:16:31;;;;;;;4.20;3.15;;;25.60;99.90;;;;;;5002090;28;20610;-75
2022/09/11 11:19:19;;;;;;;4.10;2.83;;;25.60;99.90;;;;;;4997053;28;20744;-75
2022/09/11 11:22:05;;;;;;;5.13;2.72;;;25.50;99.90;;;;;;4997848;28;20298;-75
2022/09/11 11:25:04;;;;;;;5.03;2.95;;;25.30;99.90;;;;;;4995601;28;20686;-76
2022/09/11 11:27:35;;;;;;;4.22;2.95;;;25.40;99.90;;;;;;4996885;28;20402;-76
2022/09/11 11:30:14;;;;;;;5.68;3.05;;;25.50;99.90;;;;;;4996915;28;20247;-75
2022/09/11 11:33:18;;;;;;;4.15;2.85;;;25.50;99.90;;;;;;4996193;28;20230;-76
2022/09/11 11:36:11;;;;;;;6.90;3.03;;;25.50;99.90;;;;;;4997993;28;20633;-76
2022/09/11 11:38:40;;;;;;;4.22;2.75;;;25.20;99.90;;;;;;4999154;28;20316;-77
2022/09/11 11:41:18;;;;;;;4.55;3.08;;;25.10;99.90;;;;;;4998030;28;20207;-75
2022/09/11 11:43:47;;;;;;;4.78;3.10;;;25.00;99.90;;;;;;4996283;28;20213;-77
2022/09/11 11:46:23;;;;;;;5.32;3.10;;;25.00;99.90;;;;;;4997571;28;20239;-76
2022/09/11 11:49:14;;;;;;;4.95;2.83;;;25.10;99.90;;;;;;4997080;28;20309;-76
2022/09/11 11:51:59;;;;;;;4.38;2.58;;;25.40;99.90;;;;;;4998258;28;20242;-77
2022/09/11 11:54:44;;;;;;;4.13;2.72;;;25.40;99.90;;;;;;4998146;28;20237;-76
2022/09/11 11:57:17;;;;;;;3.78;2.40;;;25.60;99.90;;;;;;4998631;28;20736;-77
2022/09/11 11:59:57;;;;;;;2.83;2.53;;;25.60;99.90;;;;;;4996046;28;20289;-75
2022/09/11 12:02:30;;;;;;;2.75;2.33;;;25.50;99.90;;;;;;4979467;28;20711;-76
2022/09/11 12:05:23;;;;;;;3.83;2.45;;;25.40;99.90;;;;;;4996138;28;20226;-75
2022/09/11 12:07:50;;;;;;;5.88;3.25;;;25.30;99.90;;;;;;4995832;28;20283;-76
2022/09/11 12:10:33;;;;;;;5.05;2.45;;;25.10;99.90;;;;;;4995736;28;20684;-77
2022/09/11 12:13:04;;;;;;;3.80;2.60;;;25.00;99.90;;;;;;4999454;28;20272;-76
2022/09/11 12:15:33;;;;;;;4.25;2.10;;;25.00;99.90;;;;;;5001730;28;20258;-77
2022/09/11 12:18:23;;;;;;;3.78;2.20;;;25.10;99.90;;;;;;4997320;28;20234;-77
2022/09/11 12:20:50;;;;;;;5.88;3.40;;;25.40;99.90;;;;;;4998565;28;20265;-76
2022/09/11 12:23:29;;;;;;;4.80;3.45;;;25.60;99.90;;;;;;4993392;28;20204;-77
2022/09/11 12:26:16;;;;;;;5.75;3.53;;;25.70;99.90;;;;;;4998883;28;20746;-79
2022/09/11 12:28:44;;;;;;;7.65;5.90;;;25.90;99.90;;;;;;4996997;28;20726;-76
2022/09/11 12:31:13;;;;;;;9.68;6.80;;;25.90;99.90;;;;;;5000059;28;20329;-75
2022/09/11 12:33:39;;;;;;;7.35;6.20;;;26.00;99.90;;;;;;5002432;28;20360;-75
2022/09/11 12:36:11;;;;;;;8.75;6.07;;;26.20;99.90;;;;;;4983581;28;20273;-76
2022/09/11 12:38:47;;;;;;;6.47;5.70;;;26.10;99.90;;;;;;4999540;28;20247;-77
2022/09/11 12:41:21;;;;;;;6.43;5.75;;;26.10;99.90;;;;;;4999754;28;20620;-76
2022/09/11 12:43:48;;;;;;;9.73;6.38;;;26.20;99.90;;;;;;5000547;28;20210;-77
2022/09/11 12:46:21;;;;;;;6.32;5.40;;;26.20;99.90;;;;;;4999400;28;20300;-77
2022/09/11 12:48:55;;;;;;;7.68;5.63;;;26.20;99.90;;;;;;5000962;28;20329;-77
2022/09/11 12:51:52;;;;;;;9.40;5.60;;;26.00;99.90;;;;;;4997625;28;20808;-75
2022/09/11 12:54:28;;;;;;;8.82;5.20;;;25.80;99.90;;;;;;5000449;28;20219;-76
2022/09/11 12:57:03;;;;;;;6.75;5.53;;;25.60;99.90;;;;;;5000427;28;20206;-76
2022/09/11 12:59:39;;;;;;;6.93;5.20;;;25.40;99.90;;;;;;5002766;28;20210;-75
2022/09/11 13:02:34;;;;;;;7.07;5.47;;;25.30;99.90;;;;;;5002180;28;20214;-76